<?xml version="1.0" encoding="UTF-8" standalone="no" ?>
<gpx xmlns="http://www.topografix.com/GPX/1/1" xmlns:xsi="http://www.w3.org/2001/XMLSchema-instance" xsi:schemaLocation="http://www.topografix.com/GPX/1/1 http://www.topografix.com/GPX/1/1/gpx.xsd" version="1.1" creator="VisuGPX - https://www.visugpx.com">
  <metadata>
    <name>Ailefroide et barre des écrins</name>
  </metadata>
  <trk>
    <name><![CDATA[Ecrins J2 24.07.20]]></name>
    <trkseg>
      <trkpt lat="44.93746" lon="6.41159">
        <ele>2550.03</ele>
        <time>2020-07-24T04:22:56Z</time>
      </trkpt>
      <trkpt lat="44.93747" lon="6.41156">
        <ele>2549.55</ele>
        <time>2020-07-24T04:23:06Z</time>
      </trkpt>
      <trkpt lat="44.93792" lon="6.41146">
        <ele>2555.32</ele>
        <time>2020-07-24T04:25:02Z</time>
      </trkpt>
      <trkpt lat="44.93796" lon="6.41148">
        <ele>2555.32</ele>
        <time>2020-07-24T04:25:21Z</time>
      </trkpt>
      <trkpt lat="44.93809" lon="6.41148">
        <ele>2561.09</ele>
        <time>2020-07-24T04:25:54Z</time>
      </trkpt>
      <trkpt lat="44.9382" lon="6.41147">
        <ele>2565.9</ele>
        <time>2020-07-24T04:26:22Z</time>
      </trkpt>
      <trkpt lat="44.9382" lon="6.41147">
        <ele>2565.9</ele>
        <time>2020-07-24T04:26:24Z</time>
      </trkpt>
      <trkpt lat="44.93831" lon="6.41148">
        <ele>2569.74</ele>
        <time>2020-07-24T04:26:42Z</time>
      </trkpt>
      <trkpt lat="44.9386" lon="6.41139">
        <ele>2569.74</ele>
        <time>2020-07-24T04:27:21Z</time>
      </trkpt>
      <trkpt lat="44.9387" lon="6.41105">
        <ele>2574.07</ele>
        <time>2020-07-24T04:28:09Z</time>
      </trkpt>
      <trkpt lat="44.93877" lon="6.41096">
        <ele>2579.84</ele>
        <time>2020-07-24T04:28:43Z</time>
      </trkpt>
      <trkpt lat="44.93888" lon="6.41076">
        <ele>2585.12</ele>
        <time>2020-07-24T04:29:15Z</time>
      </trkpt>
      <trkpt lat="44.93895" lon="6.41086">
        <ele>2590.41</ele>
        <time>2020-07-24T04:29:49Z</time>
      </trkpt>
      <trkpt lat="44.93903" lon="6.41085">
        <ele>2593.77</ele>
        <time>2020-07-24T04:30:08Z</time>
      </trkpt>
      <trkpt lat="44.93905" lon="6.41092">
        <ele>2597.62</ele>
        <time>2020-07-24T04:30:33Z</time>
      </trkpt>
      <trkpt lat="44.93915" lon="6.41089">
        <ele>2602.43</ele>
        <time>2020-07-24T04:31:04Z</time>
      </trkpt>
      <trkpt lat="44.93922" lon="6.41087">
        <ele>2606.27</ele>
        <time>2020-07-24T04:31:41Z</time>
      </trkpt>
      <trkpt lat="44.93926" lon="6.41087">
        <ele>2609.64</ele>
        <time>2020-07-24T04:31:52Z</time>
      </trkpt>
      <trkpt lat="44.93934" lon="6.41095">
        <ele>2613.96</ele>
        <time>2020-07-24T04:32:20Z</time>
      </trkpt>
      <trkpt lat="44.93944" lon="6.411">
        <ele>2619.73</ele>
        <time>2020-07-24T04:32:53Z</time>
      </trkpt>
      <trkpt lat="44.93951" lon="6.41094">
        <ele>2624.06</ele>
        <time>2020-07-24T04:33:20Z</time>
      </trkpt>
      <trkpt lat="44.93961" lon="6.41091">
        <ele>2628.86</ele>
        <time>2020-07-24T04:33:51Z</time>
      </trkpt>
      <trkpt lat="44.93972" lon="6.41091">
        <ele>2633.67</ele>
        <time>2020-07-24T04:34:22Z</time>
      </trkpt>
      <trkpt lat="44.93978" lon="6.41086">
        <ele>2637.03</ele>
        <time>2020-07-24T04:34:40Z</time>
      </trkpt>
      <trkpt lat="44.9399" lon="6.41076">
        <ele>2641.36</ele>
        <time>2020-07-24T04:35:11Z</time>
      </trkpt>
      <trkpt lat="44.94" lon="6.4107">
        <ele>2646.65</ele>
        <time>2020-07-24T04:35:47Z</time>
      </trkpt>
      <trkpt lat="44.94014" lon="6.41072">
        <ele>2652.42</ele>
        <time>2020-07-24T04:36:20Z</time>
      </trkpt>
      <trkpt lat="44.94035" lon="6.41046">
        <ele>2656.74</ele>
        <time>2020-07-24T04:37:01Z</time>
      </trkpt>
      <trkpt lat="44.94045" lon="6.41041">
        <ele>2662.51</ele>
        <time>2020-07-24T04:37:31Z</time>
      </trkpt>
      <trkpt lat="44.94059" lon="6.41011">
        <ele>2666.83</ele>
        <time>2020-07-24T04:38:06Z</time>
      </trkpt>
      <trkpt lat="44.94074" lon="6.41">
        <ele>2670.68</ele>
        <time>2020-07-24T04:38:36Z</time>
      </trkpt>
      <trkpt lat="44.94091" lon="6.40987">
        <ele>2675.01</ele>
        <time>2020-07-24T04:39:08Z</time>
      </trkpt>
      <trkpt lat="44.94098" lon="6.40978">
        <ele>2678.37</ele>
        <time>2020-07-24T04:39:27Z</time>
      </trkpt>
      <trkpt lat="44.94107" lon="6.40971">
        <ele>2682.22</ele>
        <time>2020-07-24T04:39:50Z</time>
      </trkpt>
      <trkpt lat="44.94116" lon="6.40957">
        <ele>2686.06</ele>
        <time>2020-07-24T04:40:23Z</time>
      </trkpt>
      <trkpt lat="44.94122" lon="6.40943">
        <ele>2690.87</ele>
        <time>2020-07-24T04:40:52Z</time>
      </trkpt>
      <trkpt lat="44.9413" lon="6.40925">
        <ele>2695.19</ele>
        <time>2020-07-24T04:41:22Z</time>
      </trkpt>
      <trkpt lat="44.94145" lon="6.40904">
        <ele>2699.04</ele>
        <time>2020-07-24T04:41:56Z</time>
      </trkpt>
      <trkpt lat="44.94161" lon="6.40898">
        <ele>2703.85</ele>
        <time>2020-07-24T04:42:31Z</time>
      </trkpt>
      <trkpt lat="44.94178" lon="6.40883">
        <ele>2709.13</ele>
        <time>2020-07-24T04:43:05Z</time>
      </trkpt>
      <trkpt lat="44.94187" lon="6.40883">
        <ele>2712.5</ele>
        <time>2020-07-24T04:43:24Z</time>
      </trkpt>
      <trkpt lat="44.94201" lon="6.40874">
        <ele>2716.82</ele>
        <time>2020-07-24T04:43:54Z</time>
      </trkpt>
      <trkpt lat="44.94216" lon="6.40859">
        <ele>2722.11</ele>
        <time>2020-07-24T04:44:26Z</time>
      </trkpt>
      <trkpt lat="44.94233" lon="6.40848">
        <ele>2726.44</ele>
        <time>2020-07-24T04:44:58Z</time>
      </trkpt>
      <trkpt lat="44.94245" lon="6.40841">
        <ele>2729.8</ele>
        <time>2020-07-24T04:45:17Z</time>
      </trkpt>
      <trkpt lat="44.94261" lon="6.40833">
        <ele>2734.61</ele>
        <time>2020-07-24T04:45:48Z</time>
      </trkpt>
      <trkpt lat="44.94273" lon="6.40825">
        <ele>2738.93</ele>
        <time>2020-07-24T04:46:18Z</time>
      </trkpt>
      <trkpt lat="44.94285" lon="6.4081">
        <ele>2744.22</ele>
        <time>2020-07-24T04:46:52Z</time>
      </trkpt>
      <trkpt lat="44.943" lon="6.40806">
        <ele>2748.55</ele>
        <time>2020-07-24T04:47:23Z</time>
      </trkpt>
      <trkpt lat="44.94306" lon="6.408">
        <ele>2751.91</ele>
        <time>2020-07-24T04:47:39Z</time>
      </trkpt>
      <trkpt lat="44.9432" lon="6.40798">
        <ele>2756.72</ele>
        <time>2020-07-24T04:48:13Z</time>
      </trkpt>
      <trkpt lat="44.9433" lon="6.40795">
        <ele>2760.08</ele>
        <time>2020-07-24T04:48:40Z</time>
      </trkpt>
      <trkpt lat="44.9434" lon="6.40794">
        <ele>2764.89</ele>
        <time>2020-07-24T04:49:10Z</time>
      </trkpt>
      <trkpt lat="44.9435" lon="6.40789">
        <ele>2768.73</ele>
        <time>2020-07-24T04:49:40Z</time>
      </trkpt>
      <trkpt lat="44.94364" lon="6.40782">
        <ele>2774.02</ele>
        <time>2020-07-24T04:50:14Z</time>
      </trkpt>
      <trkpt lat="44.94372" lon="6.40779">
        <ele>2777.39</ele>
        <time>2020-07-24T04:50:31Z</time>
      </trkpt>
      <trkpt lat="44.94373" lon="6.4075">
        <ele>2780.75</ele>
        <time>2020-07-24T04:51:03Z</time>
      </trkpt>
      <trkpt lat="44.94383" lon="6.40719">
        <ele>2785.08</ele>
        <time>2020-07-24T04:51:45Z</time>
      </trkpt>
      <trkpt lat="44.94393" lon="6.40706">
        <ele>2789.88</ele>
        <time>2020-07-24T04:52:16Z</time>
      </trkpt>
      <trkpt lat="44.94403" lon="6.40681">
        <ele>2795.17</ele>
        <time>2020-07-24T04:52:51Z</time>
      </trkpt>
      <trkpt lat="44.94411" lon="6.40654">
        <ele>2799.5</ele>
        <time>2020-07-24T04:53:26Z</time>
      </trkpt>
      <trkpt lat="44.9442" lon="6.40644">
        <ele>2805.75</ele>
        <time>2020-07-24T04:54:01Z</time>
      </trkpt>
      <trkpt lat="44.94431" lon="6.40634">
        <ele>2810.07</ele>
        <time>2020-07-24T04:54:31Z</time>
      </trkpt>
      <trkpt lat="44.94442" lon="6.40618">
        <ele>2815.36</ele>
        <time>2020-07-24T04:55:06Z</time>
      </trkpt>
      <trkpt lat="44.94447" lon="6.40606">
        <ele>2820.65</ele>
        <time>2020-07-24T04:55:38Z</time>
      </trkpt>
      <trkpt lat="44.9445" lon="6.40596">
        <ele>2825.93</ele>
        <time>2020-07-24T04:56:09Z</time>
      </trkpt>
      <trkpt lat="44.94449" lon="6.40595">
        <ele>2825.93</ele>
        <time>2020-07-24T04:56:13Z</time>
      </trkpt>
      <trkpt lat="44.94456" lon="6.40594">
        <ele>2829.78</ele>
        <time>2020-07-24T04:56:28Z</time>
      </trkpt>
      <trkpt lat="44.94474" lon="6.4059">
        <ele>2835.06</ele>
        <time>2020-07-24T04:56:59Z</time>
      </trkpt>
      <trkpt lat="44.94485" lon="6.40579">
        <ele>2839.39</ele>
        <time>2020-07-24T04:57:31Z</time>
      </trkpt>
      <trkpt lat="44.94489" lon="6.4057">
        <ele>2843.24</ele>
        <time>2020-07-24T04:57:47Z</time>
      </trkpt>
      <trkpt lat="44.94515" lon="6.40536">
        <ele>2846.6</ele>
        <time>2020-07-24T04:58:45Z</time>
      </trkpt>
      <trkpt lat="44.94536" lon="6.40514">
        <ele>2850.93</ele>
        <time>2020-07-24T04:59:32Z</time>
      </trkpt>
      <trkpt lat="44.94561" lon="6.40489">
        <ele>2854.77</ele>
        <time>2020-07-24T05:00:09Z</time>
      </trkpt>
      <trkpt lat="44.94576" lon="6.40479">
        <ele>2860.54</ele>
        <time>2020-07-24T05:00:44Z</time>
      </trkpt>
      <trkpt lat="44.94592" lon="6.40472">
        <ele>2865.35</ele>
        <time>2020-07-24T05:01:14Z</time>
      </trkpt>
      <trkpt lat="44.94599" lon="6.4047">
        <ele>2864.39</ele>
        <time>2020-07-24T05:01:29Z</time>
      </trkpt>
      <trkpt lat="44.9462" lon="6.40449">
        <ele>2860.54</ele>
        <time>2020-07-24T05:02:05Z</time>
      </trkpt>
      <trkpt lat="44.94637" lon="6.40394">
        <ele>2856.69</ele>
        <time>2020-07-24T05:03:34Z</time>
      </trkpt>
      <trkpt lat="44.94651" lon="6.40267">
        <ele>2850.45</ele>
        <time>2020-07-24T05:06:09Z</time>
      </trkpt>
      <trkpt lat="44.94644" lon="6.40268">
        <ele>2849.97</ele>
        <time>2020-07-24T05:19:06Z</time>
      </trkpt>
      <trkpt lat="44.94626" lon="6.40199">
        <ele>2853.33</ele>
        <time>2020-07-24T05:22:00Z</time>
      </trkpt>
      <trkpt lat="44.94621" lon="6.40171">
        <ele>2857.66</ele>
        <time>2020-07-24T05:22:35Z</time>
      </trkpt>
      <trkpt lat="44.94623" lon="6.40146">
        <ele>2861.02</ele>
        <time>2020-07-24T05:23:11Z</time>
      </trkpt>
      <trkpt lat="44.94631" lon="6.40117">
        <ele>2865.83</ele>
        <time>2020-07-24T05:23:52Z</time>
      </trkpt>
      <trkpt lat="44.9464" lon="6.40095">
        <ele>2869.67</ele>
        <time>2020-07-24T05:24:24Z</time>
      </trkpt>
      <trkpt lat="44.94651" lon="6.40073">
        <ele>2874.48</ele>
        <time>2020-07-24T05:25:05Z</time>
      </trkpt>
      <trkpt lat="44.9466" lon="6.4005">
        <ele>2877.84</ele>
        <time>2020-07-24T05:25:37Z</time>
      </trkpt>
      <trkpt lat="44.9467" lon="6.40034">
        <ele>2881.21</ele>
        <time>2020-07-24T05:26:00Z</time>
      </trkpt>
      <trkpt lat="44.9469" lon="6.4">
        <ele>2885.05</ele>
        <time>2020-07-24T05:26:52Z</time>
      </trkpt>
      <trkpt lat="44.94697" lon="6.39975">
        <ele>2888.9</ele>
        <time>2020-07-24T05:27:32Z</time>
      </trkpt>
      <trkpt lat="44.94706" lon="6.39945">
        <ele>2894.19</ele>
        <time>2020-07-24T05:28:19Z</time>
      </trkpt>
      <trkpt lat="44.94716" lon="6.3991">
        <ele>2899.95</ele>
        <time>2020-07-24T05:29:17Z</time>
      </trkpt>
      <trkpt lat="44.94719" lon="6.39899">
        <ele>2903.32</ele>
        <time>2020-07-24T05:29:39Z</time>
      </trkpt>
      <trkpt lat="44.94722" lon="6.39884">
        <ele>2908.13</ele>
        <time>2020-07-24T05:30:09Z</time>
      </trkpt>
      <trkpt lat="44.94725" lon="6.39869">
        <ele>2914.37</ele>
        <time>2020-07-24T05:30:39Z</time>
      </trkpt>
      <trkpt lat="44.94727" lon="6.39854">
        <ele>2919.66</ele>
        <time>2020-07-24T05:31:55Z</time>
      </trkpt>
      <trkpt lat="44.94728" lon="6.39824">
        <ele>2923.51</ele>
        <time>2020-07-24T05:32:41Z</time>
      </trkpt>
      <trkpt lat="44.94727" lon="6.39804">
        <ele>2927.35</ele>
        <time>2020-07-24T05:33:08Z</time>
      </trkpt>
      <trkpt lat="44.94737" lon="6.3979">
        <ele>2931.68</ele>
        <time>2020-07-24T05:33:46Z</time>
      </trkpt>
      <trkpt lat="44.9474" lon="6.39773">
        <ele>2936.97</ele>
        <time>2020-07-24T05:34:20Z</time>
      </trkpt>
      <trkpt lat="44.94743" lon="6.39759">
        <ele>2942.25</ele>
        <time>2020-07-24T05:34:56Z</time>
      </trkpt>
      <trkpt lat="44.94748" lon="6.39743">
        <ele>2948.02</ele>
        <time>2020-07-24T05:35:28Z</time>
      </trkpt>
      <trkpt lat="44.94748" lon="6.39742">
        <ele>2948.02</ele>
        <time>2020-07-24T05:35:29Z</time>
      </trkpt>
      <trkpt lat="44.94753" lon="6.39704">
        <ele>2953.79</ele>
        <time>2020-07-24T05:36:32Z</time>
      </trkpt>
      <trkpt lat="44.94756" lon="6.39692">
        <ele>2957.15</ele>
        <time>2020-07-24T05:36:49Z</time>
      </trkpt>
      <trkpt lat="44.94761" lon="6.39665">
        <ele>2960.52</ele>
        <time>2020-07-24T05:37:24Z</time>
      </trkpt>
      <trkpt lat="44.94768" lon="6.39632">
        <ele>2964.84</ele>
        <time>2020-07-24T05:38:05Z</time>
      </trkpt>
      <trkpt lat="44.94772" lon="6.396">
        <ele>2968.21</ele>
        <time>2020-07-24T05:38:43Z</time>
      </trkpt>
      <trkpt lat="44.94772" lon="6.39593">
        <ele>2971.57</ele>
        <time>2020-07-24T05:38:52Z</time>
      </trkpt>
      <trkpt lat="44.94785" lon="6.39549">
        <ele>2971.09</ele>
        <time>2020-07-24T05:42:40Z</time>
      </trkpt>
      <trkpt lat="44.94785" lon="6.39549">
        <ele>2975.9</ele>
        <time>2020-07-24T05:42:42Z</time>
      </trkpt>
      <trkpt lat="44.94798" lon="6.39533">
        <ele>2983.59</ele>
        <time>2020-07-24T05:47:38Z</time>
      </trkpt>
      <trkpt lat="44.94802" lon="6.39533">
        <ele>2986.95</ele>
        <time>2020-07-24T05:47:55Z</time>
      </trkpt>
      <trkpt lat="44.94809" lon="6.39538">
        <ele>2993.2</ele>
        <time>2020-07-24T05:48:26Z</time>
      </trkpt>
      <trkpt lat="44.94817" lon="6.39542">
        <ele>2998.97</ele>
        <time>2020-07-24T05:49:24Z</time>
      </trkpt>
      <trkpt lat="44.94823" lon="6.39549">
        <ele>3002.33</ele>
        <time>2020-07-24T05:49:42Z</time>
      </trkpt>
      <trkpt lat="44.94832" lon="6.39555">
        <ele>3006.66</ele>
        <time>2020-07-24T05:50:11Z</time>
      </trkpt>
      <trkpt lat="44.94839" lon="6.39552">
        <ele>3012.91</ele>
        <time>2020-07-24T05:50:46Z</time>
      </trkpt>
      <trkpt lat="44.9485" lon="6.39544">
        <ele>3017.23</ele>
        <time>2020-07-24T05:51:21Z</time>
      </trkpt>
      <trkpt lat="44.94854" lon="6.39533">
        <ele>3023</ele>
        <time>2020-07-24T05:51:57Z</time>
      </trkpt>
      <trkpt lat="44.94866" lon="6.39531">
        <ele>3027.33</ele>
        <time>2020-07-24T05:52:33Z</time>
      </trkpt>
      <trkpt lat="44.94883" lon="6.39555">
        <ele>3032.14</ele>
        <time>2020-07-24T05:53:27Z</time>
      </trkpt>
      <trkpt lat="44.94899" lon="6.39582">
        <ele>3036.46</ele>
        <time>2020-07-24T05:54:11Z</time>
      </trkpt>
      <trkpt lat="44.94908" lon="6.39587">
        <ele>3040.79</ele>
        <time>2020-07-24T05:54:47Z</time>
      </trkpt>
      <trkpt lat="44.94915" lon="6.39586">
        <ele>3045.11</ele>
        <time>2020-07-24T05:55:09Z</time>
      </trkpt>
      <trkpt lat="44.94926" lon="6.39595">
        <ele>3048.96</ele>
        <time>2020-07-24T05:55:40Z</time>
      </trkpt>
      <trkpt lat="44.94934" lon="6.39602">
        <ele>3052.32</ele>
        <time>2020-07-24T05:55:58Z</time>
      </trkpt>
      <trkpt lat="44.94942" lon="6.39611">
        <ele>3057.13</ele>
        <time>2020-07-24T05:56:20Z</time>
      </trkpt>
      <trkpt lat="44.94945" lon="6.39617">
        <ele>3060.49</ele>
        <time>2020-07-24T05:56:29Z</time>
      </trkpt>
      <trkpt lat="44.94946" lon="6.39617">
        <ele>3060.49</ele>
        <time>2020-07-24T05:56:30Z</time>
      </trkpt>
      <trkpt lat="44.94952" lon="6.3962">
        <ele>3055.21</ele>
        <time>2020-07-24T05:56:57Z</time>
      </trkpt>
      <trkpt lat="44.94959" lon="6.39617">
        <ele>3055.21</ele>
        <time>2020-07-24T06:02:33Z</time>
      </trkpt>
      <trkpt lat="44.95007" lon="6.39662">
        <ele>3059.53</ele>
        <time>2020-07-24T06:05:37Z</time>
      </trkpt>
      <trkpt lat="44.95038" lon="6.39701">
        <ele>3062.9</ele>
        <time>2020-07-24T06:06:33Z</time>
      </trkpt>
      <trkpt lat="44.95052" lon="6.39712">
        <ele>3067.7</ele>
        <time>2020-07-24T06:07:13Z</time>
      </trkpt>
      <trkpt lat="44.95065" lon="6.39716">
        <ele>3073.47</ele>
        <time>2020-07-24T06:07:51Z</time>
      </trkpt>
      <trkpt lat="44.95073" lon="6.39716">
        <ele>3076.84</ele>
        <time>2020-07-24T06:08:09Z</time>
      </trkpt>
      <trkpt lat="44.95087" lon="6.39732">
        <ele>3082.6</ele>
        <time>2020-07-24T06:08:49Z</time>
      </trkpt>
      <trkpt lat="44.951" lon="6.39744">
        <ele>3088.37</ele>
        <time>2020-07-24T06:09:26Z</time>
      </trkpt>
      <trkpt lat="44.95111" lon="6.39753">
        <ele>3094.62</ele>
        <time>2020-07-24T06:10:01Z</time>
      </trkpt>
      <trkpt lat="44.95115" lon="6.39753">
        <ele>3097.99</ele>
        <time>2020-07-24T06:10:14Z</time>
      </trkpt>
      <trkpt lat="44.9512" lon="6.39754">
        <ele>3101.35</ele>
        <time>2020-07-24T06:11:48Z</time>
      </trkpt>
      <trkpt lat="44.9513" lon="6.39782">
        <ele>3107.6</ele>
        <time>2020-07-24T06:12:30Z</time>
      </trkpt>
      <trkpt lat="44.95131" lon="6.39812">
        <ele>3112.89</ele>
        <time>2020-07-24T06:13:11Z</time>
      </trkpt>
      <trkpt lat="44.95127" lon="6.39849">
        <ele>3118.17</ele>
        <time>2020-07-24T06:13:51Z</time>
      </trkpt>
      <trkpt lat="44.95122" lon="6.39863">
        <ele>3123.46</ele>
        <time>2020-07-24T06:14:24Z</time>
      </trkpt>
      <trkpt lat="44.95119" lon="6.39872">
        <ele>3126.83</ele>
        <time>2020-07-24T06:14:46Z</time>
      </trkpt>
      <trkpt lat="44.95119" lon="6.39879">
        <ele>3130.19</ele>
        <time>2020-07-24T06:15:01Z</time>
      </trkpt>
      <trkpt lat="44.95119" lon="6.39879">
        <ele>3130.19</ele>
        <time>2020-07-24T06:15:02Z</time>
      </trkpt>
      <trkpt lat="44.95126" lon="6.39892">
        <ele>3135.96</ele>
        <time>2020-07-24T06:15:38Z</time>
      </trkpt>
      <trkpt lat="44.95131" lon="6.39907">
        <ele>3141.73</ele>
        <time>2020-07-24T06:16:12Z</time>
      </trkpt>
      <trkpt lat="44.95134" lon="6.39912">
        <ele>3145.09</ele>
        <time>2020-07-24T06:16:26Z</time>
      </trkpt>
      <trkpt lat="44.95131" lon="6.39925">
        <ele>3149.9</ele>
        <time>2020-07-24T06:16:58Z</time>
      </trkpt>
      <trkpt lat="44.95129" lon="6.39932">
        <ele>3153.26</ele>
        <time>2020-07-24T06:17:13Z</time>
      </trkpt>
      <trkpt lat="44.95127" lon="6.39951">
        <ele>3158.55</ele>
        <time>2020-07-24T06:17:49Z</time>
      </trkpt>
      <trkpt lat="44.95129" lon="6.3996">
        <ele>3161.91</ele>
        <time>2020-07-24T06:18:06Z</time>
      </trkpt>
      <trkpt lat="44.95142" lon="6.3997">
        <ele>3165.76</ele>
        <time>2020-07-24T06:18:44Z</time>
      </trkpt>
      <trkpt lat="44.95156" lon="6.39966">
        <ele>3171.53</ele>
        <time>2020-07-24T06:19:20Z</time>
      </trkpt>
      <trkpt lat="44.95182" lon="6.39953">
        <ele>3177.29</ele>
        <time>2020-07-24T06:20:12Z</time>
      </trkpt>
      <trkpt lat="44.95189" lon="6.39954">
        <ele>3180.66</ele>
        <time>2020-07-24T06:20:29Z</time>
      </trkpt>
      <trkpt lat="44.95195" lon="6.39959">
        <ele>3184.02</ele>
        <time>2020-07-24T06:20:49Z</time>
      </trkpt>
      <trkpt lat="44.95204" lon="6.39955">
        <ele>3189.31</ele>
        <time>2020-07-24T06:21:23Z</time>
      </trkpt>
      <trkpt lat="44.9521" lon="6.39958">
        <ele>3192.68</ele>
        <time>2020-07-24T06:21:41Z</time>
      </trkpt>
      <trkpt lat="44.95213" lon="6.39956">
        <ele>3196.04</ele>
        <time>2020-07-24T06:21:58Z</time>
      </trkpt>
      <trkpt lat="44.95218" lon="6.39957">
        <ele>3199.4</ele>
        <time>2020-07-24T06:22:16Z</time>
      </trkpt>
      <trkpt lat="44.95223" lon="6.39962">
        <ele>3202.77</ele>
        <time>2020-07-24T06:22:33Z</time>
      </trkpt>
      <trkpt lat="44.95227" lon="6.39966">
        <ele>3206.13</ele>
        <time>2020-07-24T06:22:49Z</time>
      </trkpt>
      <trkpt lat="44.9523" lon="6.39971">
        <ele>3209.5</ele>
        <time>2020-07-24T06:23:02Z</time>
      </trkpt>
      <trkpt lat="44.95235" lon="6.39972">
        <ele>3212.86</ele>
        <time>2020-07-24T06:23:16Z</time>
      </trkpt>
      <trkpt lat="44.95264" lon="6.39982">
        <ele>3216.71</ele>
        <time>2020-07-24T06:24:32Z</time>
      </trkpt>
      <trkpt lat="44.95264" lon="6.39981">
        <ele>3216.71</ele>
        <time>2020-07-24T06:25:09Z</time>
      </trkpt>
      <trkpt lat="44.95301" lon="6.40033">
        <ele>3220.55</ele>
        <time>2020-07-24T06:27:20Z</time>
      </trkpt>
      <trkpt lat="44.95313" lon="6.40062">
        <ele>3226.32</ele>
        <time>2020-07-24T06:28:04Z</time>
      </trkpt>
      <trkpt lat="44.95321" lon="6.40077">
        <ele>3232.57</ele>
        <time>2020-07-24T06:28:42Z</time>
      </trkpt>
      <trkpt lat="44.95323" lon="6.40102">
        <ele>3237.86</ele>
        <time>2020-07-24T06:29:20Z</time>
      </trkpt>
      <trkpt lat="44.95323" lon="6.40113">
        <ele>3241.22</ele>
        <time>2020-07-24T06:29:39Z</time>
      </trkpt>
      <trkpt lat="44.95323" lon="6.40124">
        <ele>3244.59</ele>
        <time>2020-07-24T06:29:57Z</time>
      </trkpt>
      <trkpt lat="44.95319" lon="6.40145">
        <ele>3249.87</ele>
        <time>2020-07-24T06:30:42Z</time>
      </trkpt>
      <trkpt lat="44.9531" lon="6.40165">
        <ele>3254.68</ele>
        <time>2020-07-24T06:31:21Z</time>
      </trkpt>
      <trkpt lat="44.95302" lon="6.40181">
        <ele>3259.49</ele>
        <time>2020-07-24T06:32:03Z</time>
      </trkpt>
      <trkpt lat="44.953" lon="6.40188">
        <ele>3263.81</ele>
        <time>2020-07-24T06:32:43Z</time>
      </trkpt>
      <trkpt lat="44.953" lon="6.40192">
        <ele>3269.1</ele>
        <time>2020-07-24T06:33:14Z</time>
      </trkpt>
      <trkpt lat="44.95298" lon="6.40201">
        <ele>3275.83</ele>
        <time>2020-07-24T06:33:53Z</time>
      </trkpt>
      <trkpt lat="44.95298" lon="6.40201">
        <ele>3275.83</ele>
        <time>2020-07-24T06:33:54Z</time>
      </trkpt>
      <trkpt lat="44.9529" lon="6.40211">
        <ele>3280.16</ele>
        <time>2020-07-24T06:34:31Z</time>
      </trkpt>
      <trkpt lat="44.95286" lon="6.40219">
        <ele>3284</ele>
        <time>2020-07-24T06:35:40Z</time>
      </trkpt>
      <trkpt lat="44.95293" lon="6.40223">
        <ele>3288.81</ele>
        <time>2020-07-24T06:36:41Z</time>
      </trkpt>
      <trkpt lat="44.95295" lon="6.40232">
        <ele>3293.13</ele>
        <time>2020-07-24T06:37:11Z</time>
      </trkpt>
      <trkpt lat="44.95295" lon="6.40241">
        <ele>3297.94</ele>
        <time>2020-07-24T06:37:41Z</time>
      </trkpt>
      <trkpt lat="44.95296" lon="6.40252">
        <ele>3303.23</ele>
        <time>2020-07-24T06:38:12Z</time>
      </trkpt>
      <trkpt lat="44.95285" lon="6.40271">
        <ele>3308.03</ele>
        <time>2020-07-24T06:38:53Z</time>
      </trkpt>
      <trkpt lat="44.95281" lon="6.40279">
        <ele>3311.88</ele>
        <time>2020-07-24T06:39:11Z</time>
      </trkpt>
      <trkpt lat="44.95222" lon="6.40345">
        <ele>3317.17</ele>
        <time>2020-07-24T06:41:29Z</time>
      </trkpt>
      <trkpt lat="44.95218" lon="6.40354">
        <ele>3323.42</ele>
        <time>2020-07-24T06:41:54Z</time>
      </trkpt>
      <trkpt lat="44.95215" lon="6.40364">
        <ele>3327.26</ele>
        <time>2020-07-24T06:42:28Z</time>
      </trkpt>
      <trkpt lat="44.95217" lon="6.40379">
        <ele>3333.03</ele>
        <time>2020-07-24T06:43:03Z</time>
      </trkpt>
      <trkpt lat="44.95214" lon="6.40393">
        <ele>3339.28</ele>
        <time>2020-07-24T06:43:40Z</time>
      </trkpt>
      <trkpt lat="44.95213" lon="6.40407">
        <ele>3344.08</ele>
        <time>2020-07-24T06:44:16Z</time>
      </trkpt>
      <trkpt lat="44.95205" lon="6.40419">
        <ele>3347.93</ele>
        <time>2020-07-24T06:44:51Z</time>
      </trkpt>
      <trkpt lat="44.95204" lon="6.40424">
        <ele>3351.77</ele>
        <time>2020-07-24T06:45:07Z</time>
      </trkpt>
      <trkpt lat="44.95197" lon="6.40438">
        <ele>3357.54</ele>
        <time>2020-07-24T06:45:52Z</time>
      </trkpt>
      <trkpt lat="44.95197" lon="6.40438">
        <ele>3356.1</ele>
        <time>2020-07-24T06:45:55Z</time>
      </trkpt>
      <trkpt lat="44.95196" lon="6.40446">
        <ele>3360.43</ele>
        <time>2020-07-24T06:46:35Z</time>
      </trkpt>
      <trkpt lat="44.95197" lon="6.40436">
        <ele>3358.98</ele>
        <time>2020-07-24T07:00:44Z</time>
      </trkpt>
      <trkpt lat="44.95201" lon="6.40426">
        <ele>3354.66</ele>
        <time>2020-07-24T07:01:15Z</time>
      </trkpt>
      <trkpt lat="44.9521" lon="6.40416">
        <ele>3349.85</ele>
        <time>2020-07-24T07:01:46Z</time>
      </trkpt>
      <trkpt lat="44.95214" lon="6.40407">
        <ele>3346.49</ele>
        <time>2020-07-24T07:01:59Z</time>
      </trkpt>
      <trkpt lat="44.95216" lon="6.40395">
        <ele>3342.16</ele>
        <time>2020-07-24T07:02:10Z</time>
      </trkpt>
      <trkpt lat="44.95218" lon="6.40383">
        <ele>3337.35</ele>
        <time>2020-07-24T07:02:36Z</time>
      </trkpt>
      <trkpt lat="44.95217" lon="6.40373">
        <ele>3333.51</ele>
        <time>2020-07-24T07:02:54Z</time>
      </trkpt>
      <trkpt lat="44.95218" lon="6.40358">
        <ele>3327.26</ele>
        <time>2020-07-24T07:03:13Z</time>
      </trkpt>
      <trkpt lat="44.95218" lon="6.40358">
        <ele>3327.26</ele>
        <time>2020-07-24T07:03:14Z</time>
      </trkpt>
      <trkpt lat="44.95216" lon="6.40348">
        <ele>3322.45</ele>
        <time>2020-07-24T07:03:30Z</time>
      </trkpt>
      <trkpt lat="44.95216" lon="6.40341">
        <ele>3319.09</ele>
        <time>2020-07-24T07:03:48Z</time>
      </trkpt>
      <trkpt lat="44.95216" lon="6.40327">
        <ele>3312.84</ele>
        <time>2020-07-24T07:04:08Z</time>
      </trkpt>
      <trkpt lat="44.95222" lon="6.40315">
        <ele>3309</ele>
        <time>2020-07-24T07:04:31Z</time>
      </trkpt>
      <trkpt lat="44.95234" lon="6.40278">
        <ele>3304.67</ele>
        <time>2020-07-24T07:04:57Z</time>
      </trkpt>
      <trkpt lat="44.95251" lon="6.40262">
        <ele>3299.86</ele>
        <time>2020-07-24T07:05:33Z</time>
      </trkpt>
      <trkpt lat="44.95254" lon="6.40259">
        <ele>3296.5</ele>
        <time>2020-07-24T07:05:49Z</time>
      </trkpt>
      <trkpt lat="44.95258" lon="6.40249">
        <ele>3293.13</ele>
        <time>2020-07-24T07:06:22Z</time>
      </trkpt>
      <trkpt lat="44.95263" lon="6.40247">
        <ele>3293.13</ele>
        <time>2020-07-24T07:06:46Z</time>
      </trkpt>
      <trkpt lat="44.95277" lon="6.4023">
        <ele>3288.81</ele>
        <time>2020-07-24T07:07:51Z</time>
      </trkpt>
      <trkpt lat="44.95279" lon="6.40221">
        <ele>3284.48</ele>
        <time>2020-07-24T07:08:48Z</time>
      </trkpt>
      <trkpt lat="44.95278" lon="6.40217">
        <ele>3279.67</ele>
        <time>2020-07-24T07:09:22Z</time>
      </trkpt>
      <trkpt lat="44.9527" lon="6.40217">
        <ele>3274.39</ele>
        <time>2020-07-24T07:09:56Z</time>
      </trkpt>
      <trkpt lat="44.95271" lon="6.40208">
        <ele>3268.62</ele>
        <time>2020-07-24T07:10:46Z</time>
      </trkpt>
      <trkpt lat="44.9527" lon="6.40201">
        <ele>3264.29</ele>
        <time>2020-07-24T07:11:40Z</time>
      </trkpt>
      <trkpt lat="44.95267" lon="6.40198">
        <ele>3260.45</ele>
        <time>2020-07-24T07:12:14Z</time>
      </trkpt>
      <trkpt lat="44.95265" lon="6.40191">
        <ele>3256.12</ele>
        <time>2020-07-24T07:12:47Z</time>
      </trkpt>
      <trkpt lat="44.95265" lon="6.40183">
        <ele>3251.8</ele>
        <time>2020-07-24T07:12:58Z</time>
      </trkpt>
      <trkpt lat="44.95266" lon="6.40175">
        <ele>3246.51</ele>
        <time>2020-07-24T07:13:08Z</time>
      </trkpt>
      <trkpt lat="44.95263" lon="6.40169">
        <ele>3242.66</ele>
        <time>2020-07-24T07:13:18Z</time>
      </trkpt>
      <trkpt lat="44.95263" lon="6.40168">
        <ele>3242.66</ele>
        <time>2020-07-24T07:13:19Z</time>
      </trkpt>
      <trkpt lat="44.95276" lon="6.40146">
        <ele>3237.86</ele>
        <time>2020-07-24T07:16:49Z</time>
      </trkpt>
      <trkpt lat="44.95286" lon="6.40119">
        <ele>3232.09</ele>
        <time>2020-07-24T07:17:08Z</time>
      </trkpt>
      <trkpt lat="44.95291" lon="6.40084">
        <ele>3225.36</ele>
        <time>2020-07-24T07:17:30Z</time>
      </trkpt>
      <trkpt lat="44.95291" lon="6.40082">
        <ele>3225.36</ele>
        <time>2020-07-24T07:17:31Z</time>
      </trkpt>
      <trkpt lat="44.9529" lon="6.40047">
        <ele>3222</ele>
        <time>2020-07-24T07:17:49Z</time>
      </trkpt>
      <trkpt lat="44.9529" lon="6.40036">
        <ele>3222.96</ele>
        <time>2020-07-24T07:17:55Z</time>
      </trkpt>
      <trkpt lat="44.95233" lon="6.39962">
        <ele>3215.75</ele>
        <time>2020-07-24T07:22:25Z</time>
      </trkpt>
      <trkpt lat="44.95223" lon="6.39956">
        <ele>3210.46</ele>
        <time>2020-07-24T07:22:39Z</time>
      </trkpt>
      <trkpt lat="44.95215" lon="6.39955">
        <ele>3204.69</ele>
        <time>2020-07-24T07:23:35Z</time>
      </trkpt>
      <trkpt lat="44.95209" lon="6.39956">
        <ele>3201.33</ele>
        <time>2020-07-24T07:23:46Z</time>
      </trkpt>
      <trkpt lat="44.952" lon="6.39954">
        <ele>3195.08</ele>
        <time>2020-07-24T07:24:13Z</time>
      </trkpt>
      <trkpt lat="44.9519" lon="6.39951">
        <ele>3188.83</ele>
        <time>2020-07-24T07:24:33Z</time>
      </trkpt>
      <trkpt lat="44.95185" lon="6.39947">
        <ele>3185.47</ele>
        <time>2020-07-24T07:24:43Z</time>
      </trkpt>
      <trkpt lat="44.95177" lon="6.39933">
        <ele>3179.22</ele>
        <time>2020-07-24T07:25:03Z</time>
      </trkpt>
      <trkpt lat="44.95171" lon="6.39928">
        <ele>3175.37</ele>
        <time>2020-07-24T07:25:17Z</time>
      </trkpt>
      <trkpt lat="44.95167" lon="6.39919">
        <ele>3172.01</ele>
        <time>2020-07-24T07:25:25Z</time>
      </trkpt>
      <trkpt lat="44.95162" lon="6.39917">
        <ele>3168.64</ele>
        <time>2020-07-24T07:25:34Z</time>
      </trkpt>
      <trkpt lat="44.9516" lon="6.3991">
        <ele>3165.28</ele>
        <time>2020-07-24T07:25:46Z</time>
      </trkpt>
      <trkpt lat="44.9515" lon="6.39912">
        <ele>3159.99</ele>
        <time>2020-07-24T07:26:05Z</time>
      </trkpt>
      <trkpt lat="44.95141" lon="6.39913">
        <ele>3156.63</ele>
        <time>2020-07-24T07:26:21Z</time>
      </trkpt>
      <trkpt lat="44.95134" lon="6.39911">
        <ele>3153.26</ele>
        <time>2020-07-24T07:26:31Z</time>
      </trkpt>
      <trkpt lat="44.95131" lon="6.39902">
        <ele>3149.9</ele>
        <time>2020-07-24T07:26:44Z</time>
      </trkpt>
      <trkpt lat="44.95128" lon="6.39893">
        <ele>3145.09</ele>
        <time>2020-07-24T07:26:52Z</time>
      </trkpt>
      <trkpt lat="44.95123" lon="6.39881">
        <ele>3139.8</ele>
        <time>2020-07-24T07:27:03Z</time>
      </trkpt>
      <trkpt lat="44.95121" lon="6.39872">
        <ele>3136.44</ele>
        <time>2020-07-24T07:27:10Z</time>
      </trkpt>
      <trkpt lat="44.95123" lon="6.39853">
        <ele>3130.67</ele>
        <time>2020-07-24T07:27:25Z</time>
      </trkpt>
      <trkpt lat="44.95125" lon="6.39836">
        <ele>3125.86</ele>
        <time>2020-07-24T07:27:39Z</time>
      </trkpt>
      <trkpt lat="44.95126" lon="6.39823">
        <ele>3122.5</ele>
        <time>2020-07-24T07:27:53Z</time>
      </trkpt>
      <trkpt lat="44.95129" lon="6.398">
        <ele>3119.13</ele>
        <time>2020-07-24T07:28:14Z</time>
      </trkpt>
      <trkpt lat="44.95128" lon="6.39785">
        <ele>3115.77</ele>
        <time>2020-07-24T07:28:25Z</time>
      </trkpt>
      <trkpt lat="44.95127" lon="6.39772">
        <ele>3112.41</ele>
        <time>2020-07-24T07:28:36Z</time>
      </trkpt>
      <trkpt lat="44.9512" lon="6.39763">
        <ele>3108.56</ele>
        <time>2020-07-24T07:28:47Z</time>
      </trkpt>
      <trkpt lat="44.95106" lon="6.39754">
        <ele>3102.79</ele>
        <time>2020-07-24T07:29:03Z</time>
      </trkpt>
      <trkpt lat="44.95096" lon="6.39738">
        <ele>3096.54</ele>
        <time>2020-07-24T07:30:03Z</time>
      </trkpt>
      <trkpt lat="44.95085" lon="6.39732">
        <ele>3091.26</ele>
        <time>2020-07-24T07:30:16Z</time>
      </trkpt>
      <trkpt lat="44.95074" lon="6.39726">
        <ele>3086.45</ele>
        <time>2020-07-24T07:30:28Z</time>
      </trkpt>
      <trkpt lat="44.95059" lon="6.39718">
        <ele>3079.72</ele>
        <time>2020-07-24T07:30:42Z</time>
      </trkpt>
      <trkpt lat="44.95048" lon="6.39715">
        <ele>3075.4</ele>
        <time>2020-07-24T07:30:53Z</time>
      </trkpt>
      <trkpt lat="44.95039" lon="6.39704">
        <ele>3072.03</ele>
        <time>2020-07-24T07:31:03Z</time>
      </trkpt>
      <trkpt lat="44.95018" lon="6.39698">
        <ele>3067.22</ele>
        <time>2020-07-24T07:31:20Z</time>
      </trkpt>
      <trkpt lat="44.95005" lon="6.39689">
        <ele>3065.3</ele>
        <time>2020-07-24T07:31:34Z</time>
      </trkpt>
      <trkpt lat="44.94967" lon="6.3966">
        <ele>3061.46</ele>
        <time>2020-07-24T07:32:16Z</time>
      </trkpt>
      <trkpt lat="44.94948" lon="6.39645">
        <ele>3056.17</ele>
        <time>2020-07-24T07:32:39Z</time>
      </trkpt>
      <trkpt lat="44.94927" lon="6.39631">
        <ele>3049.44</ele>
        <time>2020-07-24T07:33:05Z</time>
      </trkpt>
      <trkpt lat="44.94917" lon="6.39629">
        <ele>3044.63</ele>
        <time>2020-07-24T07:33:18Z</time>
      </trkpt>
      <trkpt lat="44.94905" lon="6.39621">
        <ele>3039.83</ele>
        <time>2020-07-24T07:33:32Z</time>
      </trkpt>
      <trkpt lat="44.94894" lon="6.39609">
        <ele>3036.46</ele>
        <time>2020-07-24T07:33:44Z</time>
      </trkpt>
      <trkpt lat="44.94866" lon="6.39585">
        <ele>3028.77</ele>
        <time>2020-07-24T07:34:17Z</time>
      </trkpt>
      <trkpt lat="44.94862" lon="6.39582">
        <ele>3024.44</ele>
        <time>2020-07-24T07:37:54Z</time>
      </trkpt>
      <trkpt lat="44.94845" lon="6.39575">
        <ele>3019.64</ele>
        <time>2020-07-24T07:39:50Z</time>
      </trkpt>
      <trkpt lat="44.94837" lon="6.39563">
        <ele>3016.27</ele>
        <time>2020-07-24T07:40:02Z</time>
      </trkpt>
      <trkpt lat="44.94825" lon="6.39552">
        <ele>3012.43</ele>
        <time>2020-07-24T07:40:38Z</time>
      </trkpt>
      <trkpt lat="44.94818" lon="6.39549">
        <ele>3007.14</ele>
        <time>2020-07-24T07:40:52Z</time>
      </trkpt>
      <trkpt lat="44.94814" lon="6.39548">
        <ele>3003.78</ele>
        <time>2020-07-24T07:41:00Z</time>
      </trkpt>
      <trkpt lat="44.9481" lon="6.39546">
        <ele>3000.41</ele>
        <time>2020-07-24T07:41:10Z</time>
      </trkpt>
      <trkpt lat="44.94806" lon="6.39537">
        <ele>2997.05</ele>
        <time>2020-07-24T07:41:31Z</time>
      </trkpt>
      <trkpt lat="44.94803" lon="6.39535">
        <ele>2993.68</ele>
        <time>2020-07-24T07:41:40Z</time>
      </trkpt>
      <trkpt lat="44.9479" lon="6.39533">
        <ele>2985.03</ele>
        <time>2020-07-24T07:42:16Z</time>
      </trkpt>
      <trkpt lat="44.94773" lon="6.39589">
        <ele>2978.78</ele>
        <time>2020-07-24T07:50:44Z</time>
      </trkpt>
      <trkpt lat="44.9477" lon="6.39611">
        <ele>2975.42</ele>
        <time>2020-07-24T07:50:59Z</time>
      </trkpt>
      <trkpt lat="44.94764" lon="6.3965">
        <ele>2971.57</ele>
        <time>2020-07-24T07:51:49Z</time>
      </trkpt>
      <trkpt lat="44.94758" lon="6.39675">
        <ele>2967.73</ele>
        <time>2020-07-24T07:52:06Z</time>
      </trkpt>
      <trkpt lat="44.94754" lon="6.39694">
        <ele>2963.88</ele>
        <time>2020-07-24T07:52:19Z</time>
      </trkpt>
      <trkpt lat="44.94754" lon="6.39695">
        <ele>2963.88</ele>
        <time>2020-07-24T07:52:20Z</time>
      </trkpt>
      <trkpt lat="44.94754" lon="6.39715">
        <ele>2959.56</ele>
        <time>2020-07-24T07:52:32Z</time>
      </trkpt>
      <trkpt lat="44.94748" lon="6.39744">
        <ele>2953.31</ele>
        <time>2020-07-24T07:53:02Z</time>
      </trkpt>
      <trkpt lat="44.94743" lon="6.3976">
        <ele>2947.06</ele>
        <time>2020-07-24T07:53:33Z</time>
      </trkpt>
      <trkpt lat="44.94738" lon="6.39781">
        <ele>2941.77</ele>
        <time>2020-07-24T07:53:51Z</time>
      </trkpt>
      <trkpt lat="44.94732" lon="6.39797">
        <ele>2938.41</ele>
        <time>2020-07-24T07:54:09Z</time>
      </trkpt>
      <trkpt lat="44.94725" lon="6.39805">
        <ele>2934.56</ele>
        <time>2020-07-24T07:54:21Z</time>
      </trkpt>
      <trkpt lat="44.94718" lon="6.39835">
        <ele>2929.27</ele>
        <time>2020-07-24T07:54:45Z</time>
      </trkpt>
      <trkpt lat="44.94721" lon="6.3985">
        <ele>2925.91</ele>
        <time>2020-07-24T07:55:05Z</time>
      </trkpt>
      <trkpt lat="44.94724" lon="6.39875">
        <ele>2919.18</ele>
        <time>2020-07-24T07:55:35Z</time>
      </trkpt>
      <trkpt lat="44.94723" lon="6.39887">
        <ele>2915.82</ele>
        <time>2020-07-24T07:55:46Z</time>
      </trkpt>
      <trkpt lat="44.94721" lon="6.39896">
        <ele>2912.93</ele>
        <time>2020-07-24T07:55:53Z</time>
      </trkpt>
      <trkpt lat="44.94715" lon="6.39912">
        <ele>2909.09</ele>
        <time>2020-07-24T07:56:06Z</time>
      </trkpt>
      <trkpt lat="44.94706" lon="6.39933">
        <ele>2905.72</ele>
        <time>2020-07-24T07:56:21Z</time>
      </trkpt>
      <trkpt lat="44.94699" lon="6.39959">
        <ele>2900.92</ele>
        <time>2020-07-24T07:56:44Z</time>
      </trkpt>
      <trkpt lat="44.94694" lon="6.39986">
        <ele>2897.07</ele>
        <time>2020-07-24T07:57:13Z</time>
      </trkpt>
      <trkpt lat="44.94685" lon="6.40009">
        <ele>2893.23</ele>
        <time>2020-07-24T07:57:50Z</time>
      </trkpt>
      <trkpt lat="44.94673" lon="6.40022">
        <ele>2893.23</ele>
        <time>2020-07-24T07:58:07Z</time>
      </trkpt>
      <trkpt lat="44.94665" lon="6.40043">
        <ele>2889.86</ele>
        <time>2020-07-24T07:58:24Z</time>
      </trkpt>
      <trkpt lat="44.94665" lon="6.40044">
        <ele>2889.86</ele>
        <time>2020-07-24T07:58:25Z</time>
      </trkpt>
      <trkpt lat="44.94655" lon="6.40063">
        <ele>2885.53</ele>
        <time>2020-07-24T07:58:39Z</time>
      </trkpt>
      <trkpt lat="44.94642" lon="6.40085">
        <ele>2880.25</ele>
        <time>2020-07-24T07:58:57Z</time>
      </trkpt>
      <trkpt lat="44.94627" lon="6.40122">
        <ele>2874.48</ele>
        <time>2020-07-24T07:59:20Z</time>
      </trkpt>
      <trkpt lat="44.94615" lon="6.40165">
        <ele>2867.75</ele>
        <time>2020-07-24T07:59:46Z</time>
      </trkpt>
      <trkpt lat="44.94609" lon="6.40195">
        <ele>2864.39</ele>
        <time>2020-07-24T08:00:03Z</time>
      </trkpt>
      <trkpt lat="44.94603" lon="6.40229">
        <ele>2861.02</ele>
        <time>2020-07-24T08:00:23Z</time>
      </trkpt>
      <trkpt lat="44.94603" lon="6.40259">
        <ele>2857.66</ele>
        <time>2020-07-24T08:00:55Z</time>
      </trkpt>
      <trkpt lat="44.94603" lon="6.4026">
        <ele>2857.66</ele>
        <time>2020-07-24T08:00:56Z</time>
      </trkpt>
      <trkpt lat="44.94584" lon="6.40341">
        <ele>2849</ele>
        <time>2020-07-24T08:01:52Z</time>
      </trkpt>
      <trkpt lat="44.94568" lon="6.40373">
        <ele>2843.72</ele>
        <time>2020-07-24T08:02:15Z</time>
      </trkpt>
      <trkpt lat="44.94553" lon="6.40411">
        <ele>2839.39</ele>
        <time>2020-07-24T08:02:40Z</time>
      </trkpt>
      <trkpt lat="44.94536" lon="6.40431">
        <ele>2833.62</ele>
        <time>2020-07-24T08:03:04Z</time>
      </trkpt>
      <trkpt lat="44.9453" lon="6.40439">
        <ele>2830.26</ele>
        <time>2020-07-24T08:03:13Z</time>
      </trkpt>
      <trkpt lat="44.9452" lon="6.40448">
        <ele>2826.89</ele>
        <time>2020-07-24T08:03:26Z</time>
      </trkpt>
      <trkpt lat="44.94512" lon="6.40454">
        <ele>2823.53</ele>
        <time>2020-07-24T08:03:35Z</time>
      </trkpt>
      <trkpt lat="44.94508" lon="6.40456">
        <ele>2822.57</ele>
        <time>2020-07-24T08:03:40Z</time>
      </trkpt>
      <trkpt lat="44.94503" lon="6.40459">
        <ele>2820.65</ele>
        <time>2020-07-24T08:03:45Z</time>
      </trkpt>
      <trkpt lat="44.94488" lon="6.40468">
        <ele>2816.8</ele>
        <time>2020-07-24T08:03:58Z</time>
      </trkpt>
      <trkpt lat="44.94441" lon="6.40516">
        <ele>2813.44</ele>
        <time>2020-07-24T08:04:43Z</time>
      </trkpt>
      <trkpt lat="44.94426" lon="6.40528">
        <ele>2809.59</ele>
        <time>2020-07-24T08:08:11Z</time>
      </trkpt>
      <trkpt lat="44.94427" lon="6.40525">
        <ele>2813.92</ele>
        <time>2020-07-24T08:12:52Z</time>
      </trkpt>
      <trkpt lat="44.94438" lon="6.40553">
        <ele>2817.76</ele>
        <time>2020-07-24T08:14:37Z</time>
      </trkpt>
      <trkpt lat="44.94409" lon="6.40597">
        <ele>2812.47</ele>
        <time>2020-07-24T08:15:36Z</time>
      </trkpt>
      <trkpt lat="44.94395" lon="6.4061">
        <ele>2809.59</ele>
        <time>2020-07-24T08:16:02Z</time>
      </trkpt>
      <trkpt lat="44.9438" lon="6.40643">
        <ele>2804.78</ele>
        <time>2020-07-24T08:16:28Z</time>
      </trkpt>
      <trkpt lat="44.9438" lon="6.40652">
        <ele>2800.46</ele>
        <time>2020-07-24T08:16:39Z</time>
      </trkpt>
      <trkpt lat="44.94378" lon="6.40663">
        <ele>2795.65</ele>
        <time>2020-07-24T08:16:52Z</time>
      </trkpt>
      <trkpt lat="44.94371" lon="6.40687">
        <ele>2790.36</ele>
        <time>2020-07-24T08:17:09Z</time>
      </trkpt>
      <trkpt lat="44.94368" lon="6.40694">
        <ele>2790.36</ele>
        <time>2020-07-24T08:17:13Z</time>
      </trkpt>
      <trkpt lat="44.94362" lon="6.4072">
        <ele>2787</ele>
        <time>2020-07-24T08:17:36Z</time>
      </trkpt>
      <trkpt lat="44.94336" lon="6.40761">
        <ele>2777.87</ele>
        <time>2020-07-24T08:18:32Z</time>
      </trkpt>
      <trkpt lat="44.94331" lon="6.40771">
        <ele>2774.5</ele>
        <time>2020-07-24T08:18:46Z</time>
      </trkpt>
      <trkpt lat="44.94326" lon="6.40781">
        <ele>2771.14</ele>
        <time>2020-07-24T08:18:59Z</time>
      </trkpt>
      <trkpt lat="44.94318" lon="6.40796">
        <ele>2765.85</ele>
        <time>2020-07-24T08:19:17Z</time>
      </trkpt>
      <trkpt lat="44.94302" lon="6.40803">
        <ele>2760.08</ele>
        <time>2020-07-24T08:19:39Z</time>
      </trkpt>
      <trkpt lat="44.94292" lon="6.40805">
        <ele>2755.76</ele>
        <time>2020-07-24T08:19:54Z</time>
      </trkpt>
      <trkpt lat="44.9427" lon="6.40829">
        <ele>2748.07</ele>
        <time>2020-07-24T08:20:27Z</time>
      </trkpt>
      <trkpt lat="44.9426" lon="6.40833">
        <ele>2744.7</ele>
        <time>2020-07-24T08:20:37Z</time>
      </trkpt>
      <trkpt lat="44.94241" lon="6.40844">
        <ele>2739.89</ele>
        <time>2020-07-24T08:20:57Z</time>
      </trkpt>
      <trkpt lat="44.94231" lon="6.40849">
        <ele>2736.53</ele>
        <time>2020-07-24T08:21:07Z</time>
      </trkpt>
      <trkpt lat="44.94202" lon="6.40871">
        <ele>2730.28</ele>
        <time>2020-07-24T08:21:39Z</time>
      </trkpt>
      <trkpt lat="44.94191" lon="6.4088">
        <ele>2726.92</ele>
        <time>2020-07-24T08:21:51Z</time>
      </trkpt>
      <trkpt lat="44.94183" lon="6.40884">
        <ele>2723.07</ele>
        <time>2020-07-24T08:22:01Z</time>
      </trkpt>
      <trkpt lat="44.94169" lon="6.40894">
        <ele>2717.78</ele>
        <time>2020-07-24T08:22:16Z</time>
      </trkpt>
      <trkpt lat="44.94147" lon="6.40906">
        <ele>2711.54</ele>
        <time>2020-07-24T08:22:40Z</time>
      </trkpt>
      <trkpt lat="44.94145" lon="6.40907">
        <ele>2711.54</ele>
        <time>2020-07-24T08:22:42Z</time>
      </trkpt>
      <trkpt lat="44.94133" lon="6.40927">
        <ele>2707.21</ele>
        <time>2020-07-24T08:22:58Z</time>
      </trkpt>
      <trkpt lat="44.94118" lon="6.40947">
        <ele>2701.44</ele>
        <time>2020-07-24T08:23:18Z</time>
      </trkpt>
      <trkpt lat="44.9411" lon="6.40961">
        <ele>2695.67</ele>
        <time>2020-07-24T08:23:35Z</time>
      </trkpt>
      <trkpt lat="44.9411" lon="6.40961">
        <ele>2695.67</ele>
        <time>2020-07-24T08:23:36Z</time>
      </trkpt>
      <trkpt lat="44.94097" lon="6.40978">
        <ele>2689.43</ele>
        <time>2020-07-24T08:23:58Z</time>
      </trkpt>
      <trkpt lat="44.94084" lon="6.40992">
        <ele>2685.1</ele>
        <time>2020-07-24T08:24:12Z</time>
      </trkpt>
      <trkpt lat="44.94071" lon="6.41">
        <ele>2681.25</ele>
        <time>2020-07-24T08:24:25Z</time>
      </trkpt>
      <trkpt lat="44.94069" lon="6.41002">
        <ele>2681.73</ele>
        <time>2020-07-24T08:24:28Z</time>
      </trkpt>
      <trkpt lat="44.94058" lon="6.41013">
        <ele>2678.37</ele>
        <time>2020-07-24T08:24:40Z</time>
      </trkpt>
      <trkpt lat="44.94051" lon="6.41029">
        <ele>2675.01</ele>
        <time>2020-07-24T08:24:50Z</time>
      </trkpt>
      <trkpt lat="44.94044" lon="6.41035">
        <ele>2675.49</ele>
        <time>2020-07-24T08:24:57Z</time>
      </trkpt>
      <trkpt lat="44.94037" lon="6.41045">
        <ele>2671.64</ele>
        <time>2020-07-24T08:25:14Z</time>
      </trkpt>
      <trkpt lat="44.94037" lon="6.41046">
        <ele>2671.64</ele>
        <time>2020-07-24T08:25:15Z</time>
      </trkpt>
      <trkpt lat="44.94026" lon="6.4106">
        <ele>2665.87</ele>
        <time>2020-07-24T08:25:27Z</time>
      </trkpt>
      <trkpt lat="44.94025" lon="6.41063">
        <ele>2665.87</ele>
        <time>2020-07-24T08:25:29Z</time>
      </trkpt>
      <trkpt lat="44.94008" lon="6.41076">
        <ele>2662.51</ele>
        <time>2020-07-24T08:25:48Z</time>
      </trkpt>
      <trkpt lat="44.93994" lon="6.41091">
        <ele>2657.7</ele>
        <time>2020-07-24T08:26:08Z</time>
      </trkpt>
      <trkpt lat="44.93988" lon="6.41093">
        <ele>2654.34</ele>
        <time>2020-07-24T08:26:16Z</time>
      </trkpt>
      <trkpt lat="44.93974" lon="6.41088">
        <ele>2648.09</ele>
        <time>2020-07-24T08:26:37Z</time>
      </trkpt>
      <trkpt lat="44.93959" lon="6.41093">
        <ele>2643.28</ele>
        <time>2020-07-24T08:26:57Z</time>
      </trkpt>
      <trkpt lat="44.93951" lon="6.41103">
        <ele>2637.51</ele>
        <time>2020-07-24T08:27:14Z</time>
      </trkpt>
      <trkpt lat="44.93947" lon="6.41098">
        <ele>2633.67</ele>
        <time>2020-07-24T08:27:24Z</time>
      </trkpt>
      <trkpt lat="44.93941" lon="6.41094">
        <ele>2630.3</ele>
        <time>2020-07-24T08:27:36Z</time>
      </trkpt>
      <trkpt lat="44.93931" lon="6.41088">
        <ele>2624.54</ele>
        <time>2020-07-24T08:27:52Z</time>
      </trkpt>
      <trkpt lat="44.93924" lon="6.4109">
        <ele>2621.17</ele>
        <time>2020-07-24T08:28:05Z</time>
      </trkpt>
      <trkpt lat="44.93923" lon="6.41091">
        <ele>2621.17</ele>
        <time>2020-07-24T08:28:06Z</time>
      </trkpt>
      <trkpt lat="44.93917" lon="6.41094">
        <ele>2617.33</ele>
        <time>2020-07-24T08:28:16Z</time>
      </trkpt>
      <trkpt lat="44.93911" lon="6.41094">
        <ele>2613</ele>
        <time>2020-07-24T08:28:28Z</time>
      </trkpt>
      <trkpt lat="44.93901" lon="6.41094">
        <ele>2608.19</ele>
        <time>2020-07-24T08:28:42Z</time>
      </trkpt>
      <trkpt lat="44.93894" lon="6.41088">
        <ele>2603.87</ele>
        <time>2020-07-24T08:28:55Z</time>
      </trkpt>
      <trkpt lat="44.93886" lon="6.41089">
        <ele>2600.5</ele>
        <time>2020-07-24T08:29:06Z</time>
      </trkpt>
      <trkpt lat="44.93877" lon="6.41092">
        <ele>2594.25</ele>
        <time>2020-07-24T08:29:26Z</time>
      </trkpt>
      <trkpt lat="44.93873" lon="6.41108">
        <ele>2588.49</ele>
        <time>2020-07-24T08:29:50Z</time>
      </trkpt>
      <trkpt lat="44.93868" lon="6.41117">
        <ele>2584.64</ele>
        <time>2020-07-24T08:30:01Z</time>
      </trkpt>
      <trkpt lat="44.93868" lon="6.41118">
        <ele>2584.64</ele>
        <time>2020-07-24T08:30:02Z</time>
      </trkpt>
      <trkpt lat="44.9384" lon="6.41163">
        <ele>2580.8</ele>
        <time>2020-07-24T08:30:43Z</time>
      </trkpt>
      <trkpt lat="44.93825" lon="6.41168">
        <ele>2576.95</ele>
        <time>2020-07-24T08:31:02Z</time>
      </trkpt>
      <trkpt lat="44.93799" lon="6.41179">
        <ele>2573.11</ele>
        <time>2020-07-24T08:31:31Z</time>
      </trkpt>
      <trkpt lat="44.93805" lon="6.41173">
        <ele>2577.91</ele>
        <time>2020-07-24T08:31:48Z</time>
      </trkpt>
      <trkpt lat="44.93773" lon="6.4116">
        <ele>2570.22</ele>
        <time>2020-07-24T08:32:42Z</time>
      </trkpt>
      <trkpt lat="44.9376" lon="6.41154">
        <ele>2563.97</ele>
        <time>2020-07-24T08:33:12Z</time>
      </trkpt>
      <trkpt lat="44.93744" lon="6.41161">
        <ele>2560.61</ele>
        <time>2020-07-24T08:37:16Z</time>
      </trkpt>
      <trkpt lat="44.93735" lon="6.41119">
        <ele>2559.17</ele>
        <time>2020-07-24T08:42:47Z</time>
      </trkpt>
    </trkseg>
  </trk>
</gpx>